createdAt,value
2022-08-03T00:02:21.342Z,32.60
2022-08-03T00:04:49.632Z,32.64
2022-08-03T00:07:18.393Z,33.23
2022-08-03T00:09:46.916Z,33.65
2022-08-03T00:12:15.387Z,33.12
2022-08-03T00:14:44.049Z,33.55
2022-08-03T00:17:12.742Z,33.76
2022-08-03T00:19:41.071Z,33.97
2022-08-03T00:22:09.420Z,33.83
2022-08-03T00:24:37.863Z,33.95
2022-08-03T00:27:06.466Z,34.39
2022-08-03T00:29:59.980Z,34.71
2022-08-03T00:32:24.041Z,34.85
2022-08-03T00:34:57.797Z,35.01
2022-08-03T00:37:41.301Z,34.84
2022-08-03T00:40:16.426Z,35.20
2022-08-03T00:42:55.906Z,34.78
2022-08-03T00:45:29.315Z,35.44
2022-08-03T00:47:58.667Z,34.77
2022-08-03T00:50:28.901Z,34.77
2022-08-03T00:53:00.269Z,34.98
2022-08-03T00:55:29.070Z,35.66
2022-08-03T00:57:59.006Z,35.30
2022-08-03T01:00:29.229Z,35.43
2022-08-03T01:02:58.059Z,35.71
2022-08-03T01:05:27.146Z,35.62
2022-08-03T01:08:07.304Z,35.98
2022-08-03T01:10:42.346Z,36.20
2022-08-03T01:14:01.583Z,36.47
2022-08-03T01:16:21.062Z,36.43
2022-08-03T01:19:15.551Z,36.75
2022-08-03T01:22:19.454Z,37.13
2022-08-03T01:24:59.307Z,37.29
2022-08-03T01:27:44.717Z,37.41
2022-08-03T01:30:14.322Z,37.62
2022-08-03T01:33:02.119Z,37.81
2022-08-03T01:35:44.272Z,38.33
2022-08-03T01:38:23.900Z,38.36
2022-08-03T01:40:58.662Z,38.35
2022-08-03T01:44:26.681Z,38.59
2022-08-03T01:46:21.701Z,38.57
2022-08-03T01:48:51.405Z,38.77
2022-08-03T01:51:22.441Z,39.05
2022-08-03T01:53:53.343Z,39.62
2022-08-03T01:56:26.101Z,40.06
2022-08-03T01:58:56.626Z,40.44
2022-08-03T02:02:28.635Z,40.74
2022-08-03T02:04:19.562Z,40.98
2022-08-03T02:07:00.579Z,41.00
2022-08-03T02:09:33.786Z,41.01
2022-08-03T02:12:02.953Z,41.23
2022-08-03T02:14:32.435Z,41.63
2022-08-03T02:17:01.831Z,41.34
2022-08-03T02:19:35.714Z,42.20
2022-08-03T02:22:06.506Z,42.65
2022-08-03T02:24:34.976Z,42.64
2022-08-03T02:27:07.141Z,43.15
2022-08-03T02:29:41.159Z,44.39
2022-08-03T02:32:18.678Z,44.14
2022-08-03T02:34:51.819Z,44.74
2022-08-03T02:37:22.530Z,44.43
2022-08-03T02:39:54.270Z,44.55
2022-08-03T02:42:24.727Z,44.60
2022-08-03T02:44:56.900Z,44.85
2022-08-03T02:47:28.437Z,44.62
2022-08-03T02:50:19.200Z,44.44
2022-08-03T02:52:49.706Z,45.22
2022-08-03T02:55:21.061Z,45.64
2022-08-03T02:57:50.181Z,45.70
2022-08-03T03:00:27.687Z,45.53
2022-08-03T03:03:00.721Z,45.94
2022-08-03T03:05:56.152Z,46.21
2022-08-03T03:08:26.163Z,46.28
2022-08-03T03:11:00.742Z,46.07
2022-08-03T03:13:31.400Z,46.39
2022-08-03T03:16:03.841Z,46.41
2022-08-03T03:18:37.063Z,46.39
2022-08-03T03:21:06.296Z,46.08
2022-08-03T03:23:40.581Z,46.13
2022-08-03T03:26:09.227Z,46.50
2022-08-03T03:28:38.346Z,46.38
2022-08-03T03:31:08.741Z,46.86
2022-08-03T03:33:38.340Z,46.88
2022-08-03T03:36:09.804Z,46.84
2022-08-03T03:38:38.345Z,47.13
2022-08-03T03:41:07.271Z,46.66
2022-08-03T03:43:36.099Z,47.19
2022-08-03T03:46:05.104Z,47.29
2022-08-03T03:48:34.341Z,47.22
2022-08-03T03:51:04.020Z,47.53
2022-08-03T03:53:32.579Z,47.08
2022-08-03T03:56:02.451Z,47.17
2022-08-03T03:58:33.381Z,47.01
2022-08-03T04:01:02.540Z,47.15
2022-08-03T04:03:31.460Z,47.40
2022-08-03T04:06:18.027Z,47.54
2022-08-03T04:09:05.379Z,47.71
2022-08-03T04:11:40.584Z,47.97
2022-08-03T04:14:16.078Z,48.11
2022-08-03T04:16:50.155Z,48.46
2022-08-03T04:19:39.789Z,48.53
2022-08-03T04:22:12.581Z,48.56
2022-08-03T04:24:49.381Z,48.59
2022-08-03T04:27:26.662Z,48.67
2022-08-03T04:29:58.025Z,48.89
2022-08-03T04:32:29.708Z,48.99
2022-08-03T04:34:58.175Z,49.25
2022-08-03T04:37:32.260Z,49.52
2022-08-03T04:40:05.145Z,49.38
2022-08-03T04:42:35.074Z,49.59
2022-08-03T04:45:04.911Z,49.53
2022-08-03T04:47:35.465Z,49.65
2022-08-03T04:50:07.150Z,49.61
2022-08-03T04:52:38.982Z,49.82
2022-08-03T04:55:08.105Z,49.83
2022-08-03T04:57:36.425Z,49.97
2022-08-03T05:00:06.871Z,50.08
2022-08-03T05:02:35.971Z,50.02
2022-08-03T05:05:05.221Z,49.96
2022-08-03T05:07:35.862Z,49.94
2022-08-03T05:10:15.706Z,50.04
2022-08-03T05:12:46.507Z,50.01
2022-08-03T05:15:15.304Z,49.93
2022-08-03T05:17:43.780Z,50.09
2022-08-03T05:20:13.027Z,50.01
2022-08-03T05:22:41.650Z,50.23
2022-08-03T05:25:10.342Z,50.14
2022-08-03T05:27:47.675Z,50.17
2022-08-03T05:30:29.663Z,50.30
2022-08-03T05:33:02.747Z,50.28
2022-08-03T05:36:01.933Z,50.46
2022-08-03T05:38:23.950Z,50.60
2022-08-03T05:41:22.260Z,50.63
2022-08-03T05:43:47.059Z,50.88
2022-08-03T05:46:15.440Z,51.08
2022-08-03T05:48:44.330Z,51.16
2022-08-03T05:51:12.900Z,51.31
2022-08-03T05:53:42.972Z,51.38
2022-08-03T05:56:16.024Z,51.25
2022-08-03T05:58:48.451Z,51.69
2022-08-03T06:01:18.061Z,51.70
2022-08-03T06:03:47.495Z,51.63
2022-08-03T06:06:16.106Z,51.85
2022-08-03T06:08:45.278Z,51.91
2022-08-03T06:11:14.505Z,51.99
2022-08-03T06:13:43.611Z,52.36
2022-08-03T06:16:12.337Z,52.55
2022-08-03T06:18:41.355Z,52.60
2022-08-03T06:21:14.860Z,52.72
2022-08-03T06:23:54.157Z,52.87
2022-08-03T06:26:25.621Z,53.19
2022-08-03T06:28:54.683Z,53.39
2022-08-03T06:31:32.268Z,53.57
2022-08-03T06:34:32.657Z,53.61
2022-08-03T06:36:52.970Z,53.71
2022-08-03T06:39:23.227Z,53.94
2022-08-03T06:41:52.743Z,53.87
2022-08-03T06:44:21.153Z,54.21
2022-08-03T06:46:49.430Z,54.28
2022-08-03T06:49:17.723Z,54.32
2022-08-03T06:52:05.527Z,54.67
2022-08-03T06:54:34.597Z,54.75
2022-08-03T06:57:02.891Z,54.71
2022-08-03T07:00:10.769Z,55.06
2022-08-03T07:02:20.506Z,54.98
2022-08-03T07:04:49.818Z,55.10
2022-08-03T07:07:18.821Z,55.16
2022-08-03T07:09:55.706Z,55.20
2022-08-03T07:12:27.468Z,55.29
2022-08-03T07:15:00.414Z,55.42
2022-08-03T07:17:31.942Z,55.66
2022-08-03T07:20:01.003Z,55.74
2022-08-03T07:22:29.617Z,56.05
2022-08-03T07:24:58.181Z,56.09
2022-08-03T07:27:32.872Z,56.34
2022-08-03T07:30:01.861Z,56.59
2022-08-03T07:32:32.341Z,56.49
2022-08-03T07:35:01.531Z,56.88
2022-08-03T07:37:31.873Z,56.85
2022-08-03T07:40:01.162Z,56.88
2022-08-03T07:42:30.802Z,56.95
2022-08-03T07:45:00.745Z,57.09
2022-08-03T07:47:35.105Z,57.50
2022-08-03T07:50:08.576Z,57.63
2022-08-03T07:52:49.227Z,57.57
2022-08-03T07:55:22.743Z,57.57
2022-08-03T07:58:13.146Z,57.86
2022-08-03T08:00:42.002Z,57.72
2022-08-03T08:03:10.982Z,57.97
2022-08-03T08:05:39.625Z,57.84
2022-08-03T08:08:08.701Z,58.06
2022-08-03T08:10:37.862Z,57.92
2022-08-03T08:13:06.660Z,58.09
2022-08-03T08:15:35.150Z,57.97
2022-08-03T08:18:11.142Z,58.16
2022-08-03T08:20:40.115Z,58.25
2022-08-03T08:23:37.701Z,58.48
2022-08-03T08:25:59.390Z,58.21
2022-08-03T08:28:32.235Z,58.31
2022-08-03T08:31:02.741Z,58.55
2022-08-03T08:34:02.658Z,58.34
2022-08-03T08:36:19.941Z,58.43
2022-08-03T08:38:48.392Z,58.36
2022-08-03T08:41:16.899Z,58.50
2022-08-03T08:43:45.341Z,58.61
2022-08-03T08:46:23.515Z,58.87
2022-08-03T08:48:53.895Z,58.89
2022-08-03T08:51:23.525Z,58.87
2022-08-03T08:54:14.661Z,58.73
2022-08-03T08:56:44.261Z,58.92
2022-08-03T08:59:12.977Z,58.85
2022-08-03T09:01:41.380Z,59.04
2022-08-03T09:04:10.418Z,58.92
2022-08-03T09:06:38.820Z,59.05
2022-08-03T09:09:09.305Z,59.04
2022-08-03T09:12:13.745Z,58.94
2022-08-03T09:15:07.295Z,59.14
2022-08-03T09:17:42.582Z,59.14
2022-08-03T09:20:11.432Z,58.92
2022-08-03T09:23:01.220Z,59.14
2022-08-03T09:25:37.670Z,59.19
2022-08-03T09:28:13.382Z,59.20
2022-08-03T09:31:01.866Z,59.27
2022-08-03T09:33:36.041Z,59.10
2022-08-03T09:36:05.233Z,59.31
2022-08-03T09:38:33.614Z,59.50
2022-08-03T09:41:02.020Z,59.45
2022-08-03T09:43:46.982Z,59.87
2022-08-03T09:46:15.196Z,59.84
2022-08-03T09:48:43.410Z,59.70
2022-08-03T09:51:33.358Z,59.79
2022-08-03T09:54:07.589Z,59.72
2022-08-03T09:56:44.104Z,59.78
2022-08-03T09:59:15.466Z,59.71
2022-08-03T10:01:43.787Z,59.85
2022-08-03T10:04:18.113Z,59.89
2022-08-03T10:06:48.107Z,59.84
2022-08-03T10:09:17.860Z,59.93
2022-08-03T10:11:48.100Z,60.12
2022-08-03T10:14:23.463Z,60.15
2022-08-03T10:16:52.102Z,60.32
2022-08-03T10:19:20.680Z,60.22
2022-08-03T10:21:56.700Z,60.41
2022-08-03T10:24:30.909Z,60.35
2022-08-03T10:27:08.360Z,60.60
2022-08-03T10:29:40.101Z,60.42
2022-08-03T10:32:17.060Z,60.83
2022-08-03T10:34:46.824Z,60.86
2022-08-03T10:37:17.477Z,60.96
2022-08-03T10:39:55.681Z,61.34
2022-08-03T10:42:28.109Z,61.46
2022-08-03T10:45:04.578Z,61.96
2022-08-03T10:47:34.499Z,61.77
2022-08-03T10:50:04.256Z,62.05
2022-08-03T10:52:38.246Z,62.11
2022-08-03T10:55:52.657Z,62.25
2022-08-03T10:58:56.844Z,62.81
2022-08-03T11:01:58.081Z,63.03
2022-08-03T11:04:30.742Z,63.15
2022-08-03T11:07:23.951Z,63.47
2022-08-03T11:09:57.865Z,63.13
2022-08-03T11:12:34.826Z,63.33
2022-08-03T11:15:12.015Z,63.60
2022-08-03T11:17:46.407Z,63.33
2022-08-03T11:20:45.652Z,63.70
2022-08-03T11:23:14.581Z,63.67
2022-08-03T11:26:18.495Z,63.86
2022-08-03T11:28:48.895Z,63.80
2022-08-03T11:34:17.185Z,64.02
2022-08-03T11:37:21.446Z,64.05
2022-08-03T11:39:52.828Z,63.65
2022-08-03T11:42:24.270Z,64.07
2022-08-03T11:44:56.970Z,64.09
2022-08-03T11:47:30.500Z,64.17
2022-08-03T11:50:02.908Z,64.26
2022-08-03T11:52:40.099Z,64.36
2022-08-03T11:55:14.175Z,64.13
2022-08-03T11:59:03.379Z,64.42
2022-08-03T12:00:33.480Z,64.16
2022-08-03T12:03:03.384Z,64.27
2022-08-03T12:05:40.262Z,64.28
2022-08-03T12:08:13.697Z,64.29
2022-08-03T12:10:51.450Z,64.37
2022-08-03T12:14:08.809Z,64.48
2022-08-03T12:16:10.212Z,64.59
2022-08-03T12:18:38.790Z,64.67
2022-08-03T12:21:12.290Z,64.63
2022-08-03T12:23:41.296Z,64.51
2022-08-03T12:26:11.316Z,64.66
2022-08-03T12:28:49.786Z,64.67
2022-08-03T12:31:18.627Z,64.86
2022-08-03T12:33:59.041Z,64.70
2022-08-03T12:36:29.537Z,64.81
2022-08-03T12:39:06.495Z,64.47
2022-08-03T12:41:39.775Z,64.52
2022-08-03T12:44:10.020Z,64.54
2022-08-03T12:46:45.332Z,64.69
2022-08-03T12:49:19.857Z,64.57
2022-08-03T12:51:48.255Z,64.73
2022-08-03T12:54:24.422Z,64.49
2022-08-03T12:57:08.055Z,64.76
2022-08-03T12:59:45.191Z,64.78
2022-08-03T13:02:25.578Z,64.71
2022-08-03T13:04:56.010Z,64.82
2022-08-03T13:07:24.455Z,64.78
2022-08-03T13:09:58.956Z,64.58
2022-08-03T13:12:28.396Z,65.00
2022-08-03T13:14:59.278Z,65.17
2022-08-03T13:17:29.046Z,65.15
2022-08-03T13:19:57.726Z,65.03
2022-08-03T13:22:29.996Z,65.04
2022-08-03T13:24:59.277Z,65.05
2022-08-03T13:28:04.014Z,65.02
2022-08-03T13:30:29.942Z,65.11
2022-08-03T13:33:01.110Z,65.37
2022-08-03T13:35:29.682Z,65.44
2022-08-03T13:37:58.117Z,65.54
2022-08-03T13:40:30.789Z,65.50
2022-08-03T13:43:04.075Z,65.49
2022-08-03T13:45:32.541Z,65.46
2022-08-03T13:48:00.876Z,65.65
2022-08-03T13:50:29.401Z,65.86
2022-08-03T13:52:58.319Z,65.55
2022-08-03T13:55:27.761Z,65.70
2022-08-03T13:58:03.181Z,65.80
2022-08-03T14:00:35.756Z,65.78
2022-08-03T14:03:12.812Z,65.55
2022-08-03T14:05:43.724Z,65.61
2022-08-03T14:08:13.673Z,65.53
2022-08-03T14:10:44.534Z,65.41
2022-08-03T14:13:17.978Z,65.32
2022-08-03T14:15:51.346Z,65.18
2022-08-03T14:18:29.207Z,65.36
2022-08-03T14:21:06.938Z,65.33
2022-08-03T14:23:38.390Z,65.12
2022-08-03T14:26:07.772Z,65.14
2022-08-03T14:28:37.206Z,65.15
2022-08-03T14:31:08.509Z,65.23
2022-08-03T14:33:43.866Z,64.97
2022-08-03T14:36:12.326Z,64.73
2022-08-03T14:38:40.718Z,64.81
2022-08-03T14:41:11.981Z,64.73
2022-08-03T14:43:40.961Z,64.58
2022-08-03T14:46:29.476Z,64.67
2022-08-03T14:50:28.572Z,64.33
2022-08-03T14:51:51.646Z,64.29
2022-08-03T14:54:23.053Z,64.25
2022-08-03T14:56:51.563Z,63.94
2022-08-03T14:59:19.833Z,64.04
2022-08-03T15:02:06.400Z,63.80
2022-08-03T15:04:36.081Z,63.85
2022-08-03T15:07:04.722Z,63.83
2022-08-03T15:09:33.205Z,63.86
2022-08-03T15:12:01.774Z,63.49
2022-08-03T15:14:33.245Z,63.60
2022-08-03T15:17:03.374Z,63.82
2022-08-03T15:20:01.241Z,63.88
2022-08-03T15:22:20.776Z,63.88
2022-08-03T15:24:54.643Z,63.84
2022-08-03T15:27:23.429Z,63.59
2022-08-03T15:30:07.716Z,63.34
2022-08-03T15:32:38.316Z,63.42
2022-08-03T15:35:07.454Z,63.24
2022-08-03T15:37:35.916Z,63.22
2022-08-03T15:40:04.815Z,63.38
2022-08-03T15:42:34.719Z,63.05
2022-08-03T15:45:03.597Z,62.71
2022-08-03T15:47:31.917Z,62.71
2022-08-03T15:50:04.300Z,62.72
2022-08-03T15:52:34.877Z,62.61
2022-08-03T15:55:03.276Z,62.19
2022-08-03T15:57:31.596Z,62.14
2022-08-03T15:59:59.881Z,62.01
2022-08-03T16:02:28.557Z,62.07
2022-08-03T16:04:56.967Z,61.99
2022-08-03T16:08:02.904Z,61.82
2022-08-03T16:10:31.851Z,61.41
2022-08-03T16:13:01.127Z,61.51
2022-08-03T16:15:29.672Z,61.69
2022-08-03T16:17:57.998Z,61.74
2022-08-03T16:20:31.496Z,61.35
2022-08-03T16:23:10.621Z,60.96
2022-08-03T16:25:41.519Z,60.82
2022-08-03T16:28:14.394Z,60.80
2022-08-03T16:30:46.274Z,60.56
2022-08-03T16:33:17.451Z,60.45
2022-08-03T16:35:47.916Z,60.40
2022-08-03T16:38:19.176Z,60.22
2022-08-03T16:40:52.652Z,59.82
2022-08-03T16:43:27.199Z,59.67
2022-08-03T16:45:55.916Z,59.41
2022-08-03T16:48:24.166Z,59.10
2022-08-03T16:50:52.564Z,59.13
2022-08-03T16:53:33.657Z,58.74
2022-08-03T16:56:11.187Z,58.48
2022-08-03T16:58:42.342Z,58.10
2022-08-03T17:01:22.334Z,58.38
2022-08-03T17:04:03.025Z,57.81
2022-08-03T17:06:37.932Z,57.33
2022-08-03T17:09:20.810Z,56.80
2022-08-03T17:11:52.402Z,56.67
2022-08-03T17:14:28.325Z,56.90
2022-08-03T17:17:04.044Z,56.50
2022-08-03T17:19:33.497Z,56.31
2022-08-03T17:22:09.921Z,56.47
2022-08-03T17:24:46.341Z,55.93
2022-08-03T17:28:48.177Z,55.83
2022-08-03T17:30:16.716Z,55.45
2022-08-03T17:32:56.665Z,55.10
2022-08-03T17:35:34.202Z,54.94
2022-08-03T17:38:06.598Z,54.38
2022-08-03T17:40:37.997Z,54.60
2022-08-03T17:44:13.973Z,54.36
2022-08-03T17:46:15.281Z,54.23
2022-08-03T17:48:48.164Z,54.16
2022-08-03T17:51:34.862Z,53.65
2022-08-03T17:54:19.767Z,53.20
2022-08-03T17:57:22.762Z,53.07
2022-08-03T18:00:25.632Z,52.91
2022-08-03T18:03:21.015Z,52.52
2022-08-03T18:06:11.370Z,52.24
2022-08-03T18:08:56.036Z,51.71
2022-08-03T18:11:35.750Z,51.18
2022-08-03T18:14:16.576Z,50.84
2022-08-03T18:17:06.476Z,49.95
2022-08-03T18:20:02.611Z,50.01
2022-08-03T18:22:30.775Z,49.85
2022-08-03T18:25:00.556Z,49.50
2022-08-03T18:27:42.853Z,48.77
2022-08-03T18:30:16.189Z,49.11
2022-08-03T18:33:01.325Z,49.13
2022-08-03T18:35:53.264Z,48.49
2022-08-03T18:38:23.786Z,47.89
2022-08-03T18:40:52.702Z,47.68
2022-08-03T18:43:21.827Z,47.22
2022-08-03T18:46:33.928Z,46.63
2022-08-03T18:49:30.256Z,46.41
2022-08-03T18:52:37.547Z,46.12
2022-08-03T18:55:20.575Z,45.49
2022-08-03T18:57:56.736Z,45.23
2022-08-03T19:03:41.438Z,44.56
2022-08-03T19:06:20.653Z,44.36
2022-08-03T19:08:56.957Z,44.03
2022-08-03T19:12:12.671Z,43.55
2022-08-03T19:14:55.712Z,43.44
2022-08-03T19:17:29.249Z,44.38
2022-08-03T19:20:01.398Z,43.59
2022-08-03T19:22:31.762Z,43.47
2022-08-03T19:25:03.364Z,43.21
2022-08-03T19:27:33.037Z,43.09
2022-08-03T19:30:14.070Z,42.75
2022-08-03T19:32:51.756Z,42.77
2022-08-03T19:35:51.399Z,42.59
2022-08-03T19:38:10.076Z,42.50
2022-08-03T19:40:43.276Z,41.84
2022-08-03T19:43:33.095Z,41.64
2022-08-03T19:46:16.636Z,42.11
2022-08-03T19:48:56.076Z,42.16
2022-08-03T19:52:01.057Z,41.63
2022-08-03T19:54:16.880Z,40.96
2022-08-03T19:56:59.595Z,40.72
2022-08-03T19:59:35.177Z,40.98
2022-08-03T20:02:09.182Z,41.03
2022-08-03T20:04:54.747Z,40.43
2022-08-03T20:07:25.025Z,40.69
2022-08-03T20:09:56.697Z,39.91
2022-08-03T20:12:29.117Z,39.10
2022-08-03T20:14:59.558Z,39.61
2022-08-03T20:17:54.048Z,39.39
2022-08-03T20:20:24.075Z,39.40
2022-08-03T20:22:57.680Z,39.38
2022-08-03T20:25:48.879Z,39.38
2022-08-03T20:28:34.318Z,39.18
2022-08-03T20:31:02.934Z,38.85
2022-08-03T20:33:45.847Z,39.27
2022-08-03T20:36:18.983Z,39.11
2022-08-03T20:38:49.022Z,39.00
2022-08-03T20:41:18.709Z,38.52
2022-08-03T20:43:51.081Z,38.26
2022-08-03T20:46:32.035Z,38.22
2022-08-03T20:49:10.091Z,37.46
2022-08-03T20:51:49.050Z,37.56
2022-08-03T20:54:22.829Z,37.65
2022-08-03T20:56:59.580Z,37.82
2022-08-03T20:59:47.364Z,36.94
2022-08-03T21:05:11.116Z,37.60
2022-08-03T21:08:05.392Z,37.38
2022-08-03T21:10:42.056Z,37.33
2022-08-03T21:13:00.965Z,45.37
2022-08-03T21:13:12.390Z,37.02
2022-08-03T21:13:18.948Z,37.58
2022-08-03T21:16:06.164Z,37.56
2022-08-03T21:18:46.880Z,37.58
2022-08-03T21:21:18.800Z,37.22
2022-08-03T21:23:53.529Z,37.16
2022-08-03T21:26:23.888Z,37.45
2022-08-03T21:28:54.322Z,37.11
2022-08-03T21:31:25.057Z,37.14
2022-08-03T21:34:06.801Z,37.08
2022-08-03T21:36:38.637Z,37.32
2022-08-03T21:39:09.766Z,36.86
2022-08-03T21:41:40.862Z,36.81
2022-08-03T21:44:11.218Z,36.57
2022-08-03T21:46:42.157Z,35.91
2022-08-03T21:50:04.303Z,35.76
2022-08-03T21:52:06.475Z,35.29
2022-08-03T21:54:42.164Z,35.17
2022-08-03T21:57:27.082Z,35.32
2022-08-03T22:00:07.891Z,35.46
2022-08-03T22:02:39.970Z,35.07
2022-08-03T22:05:13.664Z,34.19
2022-08-03T22:07:45.497Z,33.74
2022-08-03T22:10:14.241Z,33.96
2022-08-03T22:12:43.537Z,34.47
2022-08-03T22:15:14.805Z,34.28
2022-08-03T22:17:55.596Z,34.17
2022-08-03T22:20:26.638Z,33.56
2022-08-03T22:22:57.849Z,32.79
2022-08-03T22:25:34.817Z,33.42
2022-08-03T22:28:14.403Z,33.02
2022-08-03T22:30:43.988Z,33.04
2022-08-03T22:33:13.062Z,33.18
2022-08-03T22:35:47.769Z,32.47
2022-08-03T22:38:17.452Z,32.15
2022-08-03T22:40:48.202Z,32.59
2022-08-03T22:43:16.712Z,32.60
2022-08-03T22:46:09.954Z,32.62
2022-08-03T22:48:40.809Z,32.90
2022-08-03T22:51:10.801Z,32.81
2022-08-03T22:53:40.695Z,32.79
2022-08-03T22:56:09.641Z,33.19
2022-08-03T22:58:38.163Z,33.20
2022-08-03T23:01:12.557Z,32.97
2022-08-03T23:04:00.591Z,33.12
2022-08-03T23:06:35.846Z,32.94
2022-08-03T23:09:12.819Z,32.80
2022-08-03T23:11:46.125Z,32.95
2022-08-03T23:14:17.669Z,33.59
2022-08-03T23:16:48.077Z,33.87
2022-08-03T23:19:25.384Z,34.02
2022-08-03T23:22:02.351Z,34.37
2022-08-03T23:24:36.890Z,34.15
2022-08-03T23:27:06.618Z,34.78
2022-08-03T23:29:40.222Z,34.89
2022-08-03T23:32:08.962Z,35.31
2022-08-03T23:34:58.398Z,35.58
2022-08-03T23:37:27.949Z,35.19
2022-08-03T23:39:58.232Z,35.59
2022-08-03T23:42:27.601Z,35.50
2022-08-03T23:44:59.499Z,35.61
2022-08-03T23:47:46.771Z,35.68
2022-08-03T23:50:15.917Z,36.05
2022-08-03T23:53:05.772Z,36.61
2022-08-03T23:55:42.888Z,36.67
2022-08-03T23:58:35.702Z,36.91
